메인 페이지
METAR-TAF:

METAR-TAF

공항 :

헨리 코안더 국제공항

부쿠레슈티, 루마니아

위도: 44-33N, 경도: 026-06E, 고도: 95m

현재 날씨관측

예보는 31분 전, 11:30시(UTC)에 발표되었습니다.
남서9kt
온도 21°C
습도 53%
기압 1019 hPa
시정 10km 이상
1500m 미만 상공 구름 및 적란운 없음

METAR: LROP 201130Z 23009KT CAVOK 21/11 Q1019 NOSIG

시각: 15:01 (12:01 UTC)

예보

예보는 1 시간 1분 전, 11:00시(UTC)에 발표되었습니다.
예보 대상 시간: 20일 12시부터 21일 12시까지 (UTC)
서남서10kt
시정 10km 이상
1500m 미만 상공 구름 및 적란운 없음
전환 중
20일 16시부터 20일 18시까지 (UTC)
여러 방향의 바람 4kt
일시적
21일 00시부터 21일 05시까지 (UTC)
시정: 3000m
박무
전환 중
21일 08시부터 21일 10시까지 (UTC)
10kt

TAF: LROP 201100Z 2012/2112 25010KT CAVOK BECMG 2016/2018 VRB04KT TEMPO 2100/2105 3000 BR BECMG 2108/2110 08010KT

4,000개 이상의 공항 관측 자료 및 예보 (METAR 및 TAF 보고).

지도상에서 검색 가능한 기상관측소가 노란 점과 빨간 점으로 표시되어 있습니다.

기상관측소 명을 보려면 표시 위로 마우스를 이동하세요.

날씨 관측과 예보를 보려면 클릭하세요.

지도 변경 : 확대하려면 엑스 표시가 있는 녹색 버튼, 축소하려면 빼기 표시가 있는 녹색 버튼, 다음 페이지의 지도를 보려면 녹색 화살표를 클릭하세요.


METAR-TAF: